sensor_id;sensor_type;location;lat;lon;timestamp;P1;durP1;ratioP1;P2;durP2;ratioP2
23634;SDS011;11994;51.038;16.974;2023-07-28T00:01:24;3.90;;;1.90;;
23634;SDS011;11994;51.038;16.974;2023-07-28T00:03:50;5.00;;;1.80;;
23634;SDS011;11994;51.038;16.974;2023-07-28T00:06:16;3.80;;;1.80;;
23634;SDS011;11994;51.038;16.974;2023-07-28T00:08:41;2.60;;;1.70;;
23634;SDS011;11994;51.038;16.974;2023-07-28T00:11:10;3.60;;;1.70;;
23634;SDS011;11994;51.038;16.974;2023-07-28T00:13:40;4.20;;;1.80;;
23634;SDS011;11994;51.038;16.974;2023-07-28T00:16:06;2.80;;;1.90;;
23634;SDS011;11994;51.038;16.974;2023-07-28T00:18:32;5.60;;;1.90;;
23634;SDS011;11994;51.038;16.974;2023-07-28T00:20:57;4.30;;;2.10;;
23634;SDS011;11994;51.038;16.974;2023-07-28T00:23:22;2.90;;;2.00;;
23634;SDS011;11994;51.038;16.974;2023-07-28T00:25:48;3.80;;;1.90;;
23634;SDS011;11994;51.038;16.974;2023-07-28T00:28:13;3.30;;;2.00;;
23634;SDS011;11994;51.038;16.974;2023-07-28T00:30:39;4.00;;;1.80;;
23634;SDS011;11994;51.038;16.974;2023-07-28T00:33:04;4.90;;;2.20;;
23634;SDS011;11994;51.038;16.974;2023-07-28T00:35:30;4.20;;;2.00;;
23634;SDS011;11994;51.038;16.974;2023-07-28T00:37:55;9.30;;;2.60;;
23634;SDS011;11994;51.038;16.974;2023-07-28T00:40:23;4.00;;;2.70;;
23634;SDS011;11994;51.038;16.974;2023-07-28T00:42:49;5.30;;;2.80;;
23634;SDS011;11994;51.038;16.974;2023-07-28T00:45:15;3.00;;;2.10;;
23634;SDS011;11994;51.038;16.974;2023-07-28T00:47:40;3.50;;;2.10;;
23634;SDS011;11994;51.038;16.974;2023-07-28T00:50:06;4.60;;;2.70;;
23634;SDS011;11994;51.038;16.974;2023-07-28T00:52:34;5.40;;;3.00;;
23634;SDS011;11994;51.038;16.974;2023-07-28T00:55:00;3.80;;;3.20;;
23634;SDS011;11994;51.038;16.974;2023-07-28T00:57:25;5.90;;;2.90;;
23634;SDS011;11994;51.038;16.974;2023-07-28T00:59:51;4.00;;;3.20;;
23634;SDS011;11994;51.038;16.974;2023-07-28T01:02:16;3.70;;;3.00;;
23634;SDS011;11994;51.038;16.974;2023-07-28T01:04:41;13.90;;;3.50;;
23634;SDS011;11994;51.038;16.974;2023-07-28T01:09:34;5.30;;;3.30;;
23634;SDS011;11994;51.038;16.974;2023-07-28T01:12:08;4.30;;;3.40;;
23634;SDS011;11994;51.038;16.974;2023-07-28T01:14:34;4.80;;;3.70;;
23634;SDS011;11994;51.038;16.974;2023-07-28T01:16:59;4.20;;;3.10;;
23634;SDS011;11994;51.038;16.974;2023-07-28T01:19:25;5.20;;;2.80;;
23634;SDS011;11994;51.038;16.974;2023-07-28T01:21:54;4.90;;;3.20;;
23634;SDS011;11994;51.038;16.974;2023-07-28T01:24:39;5.10;;;3.60;;
23634;SDS011;11994;51.038;16.974;2023-07-28T01:27:11;4.00;;;3.30;;
23634;SDS011;11994;51.038;16.974;2023-07-28T01:29:37;7.40;;;3.50;;
23634;SDS011;11994;51.038;16.974;2023-07-28T01:32:03;5.60;;;4.00;;
23634;SDS011;11994;51.038;16.974;2023-07-28T01:34:29;6.10;;;3.70;;
23634;SDS011;11994;51.038;16.974;2023-07-28T01:36:54;3.70;;;3.00;;
23634;SDS011;11994;51.038;16.974;2023-07-28T01:39:20;4.50;;;3.10;;
23634;SDS011;11994;51.038;16.974;2023-07-28T01:41:45;5.30;;;3.30;;
23634;SDS011;11994;51.038;16.974;2023-07-28T01:44:10;4.10;;;3.30;;
23634;SDS011;11994;51.038;16.974;2023-07-28T01:46:36;8.90;;;4.10;;
23634;SDS011;11994;51.038;16.974;2023-07-28T01:49:01;6.50;;;3.80;;
23634;SDS011;11994;51.038;16.974;2023-07-28T01:51:26;12.70;;;3.40;;
23634;SDS011;11994;51.038;16.974;2023-07-28T01:53:52;4.70;;;2.60;;
23634;SDS011;11994;51.038;16.974;2023-07-28T01:56:17;4.70;;;2.80;;
23634;SDS011;11994;51.038;16.974;2023-07-28T01:58:42;4.20;;;3.00;;
23634;SDS011;11994;51.038;16.974;2023-07-28T02:01:08;6.00;;;3.00;;
23634;SDS011;11994;51.038;16.974;2023-07-28T02:03:33;4.90;;;3.30;;
23634;SDS011;11994;51.038;16.974;2023-07-28T02:06:00;5.50;;;2.70;;
23634;SDS011;11994;51.038;16.974;2023-07-28T02:08:25;5.60;;;3.00;;
23634;SDS011;11994;51.038;16.974;2023-07-28T02:10:52;3.60;;;2.50;;
23634;SDS011;11994;51.038;16.974;2023-07-28T02:13:18;5.20;;;2.70;;
23634;SDS011;11994;51.038;16.974;2023-07-28T02:15:44;3.60;;;2.70;;
23634;SDS011;11994;51.038;16.974;2023-07-28T02:18:09;6.10;;;2.50;;
23634;SDS011;11994;51.038;16.974;2023-07-28T02:20:34;6.00;;;2.60;;
23634;SDS011;11994;51.038;16.974;2023-07-28T02:23:00;6.90;;;2.70;;
23634;SDS011;11994;51.038;16.974;2023-07-28T02:25:26;4.00;;;3.10;;
23634;SDS011;11994;51.038;16.974;2023-07-28T02:27:51;2.90;;;2.30;;
23634;SDS011;11994;51.038;16.974;2023-07-28T02:30:17;3.70;;;2.20;;
23634;SDS011;11994;51.038;16.974;2023-07-28T02:32:42;3.90;;;2.60;;
23634;SDS011;11994;51.038;16.974;2023-07-28T02:35:08;5.60;;;2.50;;
23634;SDS011;11994;51.038;16.974;2023-07-28T02:37:33;3.90;;;2.60;;
23634;SDS011;11994;51.038;16.974;2023-07-28T02:39:59;4.40;;;2.30;;
23634;SDS011;11994;51.038;16.974;2023-07-28T02:42:24;3.90;;;2.50;;
23634;SDS011;11994;51.038;16.974;2023-07-28T02:44:50;3.40;;;2.10;;
23634;SDS011;11994;51.038;16.974;2023-07-28T02:47:15;3.50;;;1.90;;
23634;SDS011;11994;51.038;16.974;2023-07-28T02:49:41;4.10;;;2.10;;
23634;SDS011;11994;51.038;16.974;2023-07-28T02:52:08;6.80;;;2.40;;
23634;SDS011;11994;51.038;16.974;2023-07-28T02:54:33;3.20;;;2.30;;
23634;SDS011;11994;51.038;16.974;2023-07-28T02:56:58;4.00;;;2.30;;
23634;SDS011;11994;51.038;16.974;2023-07-28T02:59:24;6.20;;;2.40;;
23634;SDS011;11994;51.038;16.974;2023-07-28T03:01:49;3.40;;;1.90;;
23634;SDS011;11994;51.038;16.974;2023-07-28T03:04:18;5.30;;;1.80;;
23634;SDS011;11994;51.038;16.974;2023-07-28T03:06:46;3.70;;;1.80;;
23634;SDS011;11994;51.038;16.974;2023-07-28T03:09:12;2.70;;;1.80;;
23634;SDS011;11994;51.038;16.974;2023-07-28T03:11:38;2.40;;;2.00;;
23634;SDS011;11994;51.038;16.974;2023-07-28T03:14:03;5.00;;;2.10;;
23634;SDS011;11994;51.038;16.974;2023-07-28T03:16:29;4.40;;;2.10;;
23634;SDS011;11994;51.038;16.974;2023-07-28T03:18:54;3.30;;;1.90;;
23634;SDS011;11994;51.038;16.974;2023-07-28T03:21:19;3.90;;;1.90;;
23634;SDS011;11994;51.038;16.974;2023-07-28T03:23:45;5.00;;;2.30;;
23634;SDS011;11994;51.038;16.974;2023-07-28T03:26:10;2.90;;;1.90;;
23634;SDS011;11994;51.038;16.974;2023-07-28T03:28:36;6.20;;;1.80;;
23634;SDS011;11994;51.038;16.974;2023-07-28T03:31:01;3.50;;;1.90;;
23634;SDS011;11994;51.038;16.974;2023-07-28T03:33:26;3.10;;;1.60;;
23634;SDS011;11994;51.038;16.974;2023-07-28T03:35:52;3.10;;;1.50;;
23634;SDS011;11994;51.038;16.974;2023-07-28T03:38:17;4.10;;;1.60;;
23634;SDS011;11994;51.038;16.974;2023-07-28T03:40:44;3.30;;;1.40;;
23634;SDS011;11994;51.038;16.974;2023-07-28T03:43:09;3.80;;;1.40;;
23634;SDS011;11994;51.038;16.974;2023-07-28T03:45:35;5.50;;;1.80;;
23634;SDS011;11994;51.038;16.974;2023-07-28T03:48:00;2.80;;;1.20;;
23634;SDS011;11994;51.038;16.974;2023-07-28T03:50:25;2.30;;;1.10;;
23634;SDS011;11994;51.038;16.974;2023-07-28T03:52:52;2.00;;;0.90;;
23634;SDS011;11994;51.038;16.974;2023-07-28T03:55:18;3.30;;;1.70;;
23634;SDS011;11994;51.038;16.974;2023-07-28T03:57:45;2.10;;;1.00;;
23634;SDS011;11994;51.038;16.974;2023-07-28T04:00:10;2.10;;;1.10;;
23634;SDS011;11994;51.038;16.974;2023-07-28T04:02:36;1.90;;;1.20;;
23634;SDS011;11994;51.038;16.974;2023-07-28T04:05:01;3.00;;;1.50;;
23634;SDS011;11994;51.038;16.974;2023-07-28T04:07:27;2.00;;;1.20;;
23634;SDS011;11994;51.038;16.974;2023-07-28T04:09:52;2.30;;;1.10;;
23634;SDS011;11994;51.038;16.974;2023-07-28T04:12:18;4.00;;;1.50;;
23634;SDS011;11994;51.038;16.974;2023-07-28T04:14:43;3.10;;;1.50;;
23634;SDS011;11994;51.038;16.974;2023-07-28T04:17:08;3.70;;;1.40;;
23634;SDS011;11994;51.038;16.974;2023-07-28T04:19:34;3.90;;;1.70;;
23634;SDS011;11994;51.038;16.974;2023-07-28T04:22:00;5.30;;;1.50;;
23634;SDS011;11994;51.038;16.974;2023-07-28T04:24:25;3.10;;;1.20;;
23634;SDS011;11994;51.038;16.974;2023-07-28T04:26:51;1.90;;;1.10;;
23634;SDS011;11994;51.038;16.974;2023-07-28T04:29:17;3.00;;;1.30;;
23634;SDS011;11994;51.038;16.974;2023-07-28T04:31:42;3.90;;;1.40;;
23634;SDS011;11994;51.038;16.974;2023-07-28T04:34:07;3.40;;;1.50;;
23634;SDS011;11994;51.038;16.974;2023-07-28T04:36:33;3.10;;;1.00;;
23634;SDS011;11994;51.038;16.974;2023-07-28T04:38:59;1.40;;;0.90;;
23634;SDS011;11994;51.038;16.974;2023-07-28T04:41:24;1.90;;;1.10;;
23634;SDS011;11994;51.038;16.974;2023-07-28T04:43:49;1.80;;;1.00;;
23634;SDS011;11994;51.038;16.974;2023-07-28T04:46:15;2.80;;;1.10;;
23634;SDS011;11994;51.038;16.974;2023-07-28T04:48:40;2.20;;;1.00;;
23634;SDS011;11994;51.038;16.974;2023-07-28T04:51:06;2.10;;;1.30;;
23634;SDS011;11994;51.038;16.974;2023-07-28T04:53:31;2.90;;;1.00;;
23634;SDS011;11994;51.038;16.974;2023-07-28T04:55:56;2.00;;;1.10;;
23634;SDS011;11994;51.038;16.974;2023-07-28T05:01:50;3.70;;;1.00;;
23634;SDS011;11994;51.038;16.974;2023-07-28T05:04:16;3.30;;;1.30;;
23634;SDS011;11994;51.038;16.974;2023-07-28T05:06:41;2.60;;;1.10;;
23634;SDS011;11994;51.038;16.974;2023-07-28T05:09:06;2.80;;;1.10;;
23634;SDS011;11994;51.038;16.974;2023-07-28T05:11:32;1.90;;;0.70;;
23634;SDS011;11994;51.038;16.974;2023-07-28T05:13:57;1.90;;;0.90;;
23634;SDS011;11994;51.038;16.974;2023-07-28T05:16:22;1.50;;;0.80;;
23634;SDS011;11994;51.038;16.974;2023-07-28T05:18:48;3.80;;;0.90;;
23634;SDS011;11994;51.038;16.974;2023-07-28T05:21:13;1.50;;;0.80;;
23634;SDS011;11994;51.038;16.974;2023-07-28T05:23:38;2.00;;;0.70;;
23634;SDS011;11994;51.038;16.974;2023-07-28T05:26:04;1.40;;;0.70;;
23634;SDS011;11994;51.038;16.974;2023-07-28T05:28:31;2.60;;;0.70;;
23634;SDS011;11994;51.038;16.974;2023-07-28T05:31:04;1.10;;;0.50;;
23634;SDS011;11994;51.038;16.974;2023-07-28T05:33:30;1.20;;;0.80;;
23634;SDS011;11994;51.038;16.974;2023-07-28T05:36:02;1.20;;;0.50;;
23634;SDS011;11994;51.038;16.974;2023-07-28T05:38:29;1.10;;;0.40;;
23634;SDS011;11994;51.038;16.974;2023-07-28T05:41:00;2.90;;;0.50;;
23634;SDS011;11994;51.038;16.974;2023-07-28T05:43:28;1.40;;;0.50;;
23634;SDS011;11994;51.038;16.974;2023-07-28T05:45:55;1.30;;;0.60;;
23634;SDS011;11994;51.038;16.974;2023-07-28T05:48:21;3.10;;;1.00;;
23634;SDS011;11994;51.038;16.974;2023-07-28T05:50:47;1.40;;;1.00;;
23634;SDS011;11994;51.038;16.974;2023-07-28T05:53:12;2.60;;;0.60;;
23634;SDS011;11994;51.038;16.974;2023-07-28T05:55:38;1.10;;;0.50;;
23634;SDS011;11994;51.038;16.974;2023-07-28T05:58:04;1.60;;;0.50;;
23634;SDS011;11994;51.038;16.974;2023-07-28T06:00:30;2.90;;;0.70;;
23634;SDS011;11994;51.038;16.974;2023-07-28T06:02:56;1.20;;;0.40;;
23634;SDS011;11994;51.038;16.974;2023-07-28T06:05:22;0.70;;;0.30;;
23634;SDS011;11994;51.038;16.974;2023-07-28T06:07:48;0.70;;;0.40;;
23634;SDS011;11994;51.038;16.974;2023-07-28T06:10:13;0.60;;;0.40;;
23634;SDS011;11994;51.038;16.974;2023-07-28T06:12:39;2.00;;;0.50;;
23634;SDS011;11994;51.038;16.974;2023-07-28T06:15:04;2.30;;;0.30;;
23634;SDS011;11994;51.038;16.974;2023-07-28T06:17:30;3.50;;;0.40;;
23634;SDS011;11994;51.038;16.974;2023-07-28T06:19:56;2.90;;;0.60;;
23634;SDS011;11994;51.038;16.974;2023-07-28T06:22:21;0.60;;;0.30;;
23634;SDS011;11994;51.038;16.974;2023-07-28T06:24:47;1.50;;;0.50;;
23634;SDS011;11994;51.038;16.974;2023-07-28T06:27:13;0.70;;;0.40;;
23634;SDS011;11994;51.038;16.974;2023-07-28T06:29:38;1.40;;;0.40;;
23634;SDS011;11994;51.038;16.974;2023-07-28T06:32:04;1.20;;;0.40;;
23634;SDS011;11994;51.038;16.974;2023-07-28T06:34:30;0.70;;;0.40;;
23634;SDS011;11994;51.038;16.974;2023-07-28T06:36:56;1.00;;;0.30;;
23634;SDS011;11994;51.038;16.974;2023-07-28T06:39:22;3.60;;;0.40;;
23634;SDS011;11994;51.038;16.974;2023-07-28T06:41:49;1.40;;;0.40;;
23634;SDS011;11994;51.038;16.974;2023-07-28T06:44:15;1.80;;;0.50;;
23634;SDS011;11994;51.038;16.974;2023-07-28T06:46:40;0.80;;;0.30;;
23634;SDS011;11994;51.038;16.974;2023-07-28T06:49:06;0.70;;;0.20;;
23634;SDS011;11994;51.038;16.974;2023-07-28T06:51:31;6.00;;;0.40;;
23634;SDS011;11994;51.038;16.974;2023-07-28T06:53:57;1.80;;;0.30;;
23634;SDS011;11994;51.038;16.974;2023-07-28T07:06:51;0.70;;;0.30;;
23634;SDS011;11994;51.038;16.974;2023-07-28T07:09:17;1.70;;;0.40;;
23634;SDS011;11994;51.038;16.974;2023-07-28T07:11:42;0.80;;;0.30;;
23634;SDS011;11994;51.038;16.974;2023-07-28T07:14:07;0.80;;;0.30;;
23634;SDS011;11994;51.038;16.974;2023-07-28T07:16:33;1.10;;;0.40;;
23634;SDS011;11994;51.038;16.974;2023-07-28T07:18:59;1.40;;;0.50;;
23634;SDS011;11994;51.038;16.974;2023-07-28T07:21:25;1.00;;;0.30;;
23634;SDS011;11994;51.038;16.974;2023-07-28T07:23:51;0.30;;;0.20;;
23634;SDS011;11994;51.038;16.974;2023-07-28T07:26:16;0.50;;;0.30;;
23634;SDS011;11994;51.038;16.974;2023-07-28T07:28:42;0.50;;;0.20;;
23634;SDS011;11994;51.038;16.974;2023-07-28T07:31:14;2.20;;;0.20;;
23634;SDS011;11994;51.038;16.974;2023-07-28T07:33:40;4.90;;;0.20;;
23634;SDS011;11994;51.038;16.974;2023-07-28T07:36:11;1.20;;;0.30;;
23634;SDS011;11994;51.038;16.974;2023-07-28T07:38:40;0.90;;;0.20;;
23634;SDS011;11994;51.038;16.974;2023-07-28T07:41:06;0.40;;;0.20;;
23634;SDS011;11994;51.038;16.974;2023-07-28T07:43:33;0.60;;;0.20;;
23634;SDS011;11994;51.038;16.974;2023-07-28T07:45:59;0.40;;;0.30;;
23634;SDS011;11994;51.038;16.974;2023-07-28T07:48:24;0.30;;;0.20;;
23634;SDS011;11994;51.038;16.974;2023-07-28T07:50:50;0.80;;;0.30;;
23634;SDS011;11994;51.038;16.974;2023-07-28T07:53:16;1.50;;;0.20;;
23634;SDS011;11994;51.038;16.974;2023-07-28T07:55:42;2.30;;;0.30;;
23634;SDS011;11994;51.038;16.974;2023-07-28T07:58:08;3.90;;;0.40;;
23634;SDS011;11994;51.038;16.974;2023-07-28T08:00:33;1.50;;;0.20;;
23634;SDS011;11994;51.038;16.974;2023-07-28T08:02:59;2.20;;;0.30;;
23634;SDS011;11994;51.038;16.974;2023-07-28T08:05:24;2.20;;;0.30;;
23634;SDS011;11994;51.038;16.974;2023-07-28T08:07:50;1.40;;;0.20;;
23634;SDS011;11994;51.038;16.974;2023-07-28T08:10:16;3.80;;;0.30;;
23634;SDS011;11994;51.038;16.974;2023-07-28T08:12:42;1.50;;;0.40;;
23634;SDS011;11994;51.038;16.974;2023-07-28T08:15:10;1.10;;;0.30;;
23634;SDS011;11994;51.038;16.974;2023-07-28T08:17:35;2.60;;;0.40;;
23634;SDS011;11994;51.038;16.974;2023-07-28T08:20:00;5.20;;;0.40;;
23634;SDS011;11994;51.038;16.974;2023-07-28T08:22:26;3.60;;;0.50;;
23634;SDS011;11994;51.038;16.974;2023-07-28T08:24:52;1.40;;;0.50;;
23634;SDS011;11994;51.038;16.974;2023-07-28T08:27:17;1.80;;;0.70;;
23634;SDS011;11994;51.038;16.974;2023-07-28T08:29:43;2.90;;;0.70;;
23634;SDS011;11994;51.038;16.974;2023-07-28T08:32:08;2.60;;;0.80;;
23634;SDS011;11994;51.038;16.974;2023-07-28T08:34:34;2.60;;;0.50;;
23634;SDS011;11994;51.038;16.974;2023-07-28T08:36:59;1.70;;;0.40;;
23634;SDS011;11994;51.038;16.974;2023-07-28T08:39:24;0.50;;;0.20;;
23634;SDS011;11994;51.038;16.974;2023-07-28T08:42:00;1.10;;;0.40;;
23634;SDS011;11994;51.038;16.974;2023-07-28T08:44:27;1.50;;;0.40;;
23634;SDS011;11994;51.038;16.974;2023-07-28T08:46:55;0.80;;;0.40;;
23634;SDS011;11994;51.038;16.974;2023-07-28T08:49:20;1.30;;;0.40;;
23634;SDS011;11994;51.038;16.974;2023-07-28T08:51:49;0.80;;;0.40;;
23634;SDS011;11994;51.038;16.974;2023-07-28T08:54:15;1.80;;;0.40;;
23634;SDS011;11994;51.038;16.974;2023-07-28T08:56:42;2.50;;;0.40;;
23634;SDS011;11994;51.038;16.974;2023-07-28T08:59:09;2.00;;;0.80;;
23634;SDS011;11994;51.038;16.974;2023-07-28T09:01:38;3.00;;;1.10;;
23634;SDS011;11994;51.038;16.974;2023-07-28T09:06:35;1.00;;;0.40;;
23634;SDS011;11994;51.038;16.974;2023-07-28T09:09:01;1.90;;;0.50;;
23634;SDS011;11994;51.038;16.974;2023-07-28T09:11:27;2.80;;;0.40;;
23634;SDS011;11994;51.038;16.974;2023-07-28T09:13:53;3.80;;;0.50;;
23634;SDS011;11994;51.038;16.974;2023-07-28T09:16:20;1.50;;;0.70;;
23634;SDS011;11994;51.038;16.974;2023-07-28T09:18:49;4.30;;;0.80;;
23634;SDS011;11994;51.038;16.974;2023-07-28T09:21:21;1.80;;;0.50;;
23634;SDS011;11994;51.038;16.974;2023-07-28T09:23:47;3.00;;;0.60;;
23634;SDS011;11994;51.038;16.974;2023-07-28T09:26:16;1.90;;;0.40;;
23634;SDS011;11994;51.038;16.974;2023-07-28T09:28:41;1.50;;;0.60;;
23634;SDS011;11994;51.038;16.974;2023-07-28T09:31:07;1.60;;;0.60;;
23634;SDS011;11994;51.038;16.974;2023-07-28T09:33:34;2.10;;;0.70;;
23634;SDS011;11994;51.038;16.974;2023-07-28T09:36:13;2.30;;;0.70;;
23634;SDS011;11994;51.038;16.974;2023-07-28T09:38:41;1.50;;;0.60;;
23634;SDS011;11994;51.038;16.974;2023-07-28T09:41:10;4.10;;;0.80;;
23634;SDS011;11994;51.038;16.974;2023-07-28T09:43:39;0.80;;;0.50;;
23634;SDS011;11994;51.038;16.974;2023-07-28T09:46:09;4.00;;;1.00;;
23634;SDS011;11994;51.038;16.974;2023-07-28T09:48:37;1.60;;;0.60;;
23634;SDS011;11994;51.038;16.974;2023-07-28T09:51:08;3.10;;;0.70;;
23634;SDS011;11994;51.038;16.974;2023-07-28T09:53:46;4.60;;;0.90;;
23634;SDS011;11994;51.038;16.974;2023-07-28T09:56:14;1.50;;;0.90;;
23634;SDS011;11994;51.038;16.974;2023-07-28T09:58:44;1.40;;;0.80;;
23634;SDS011;11994;51.038;16.974;2023-07-28T10:01:17;1.80;;;0.90;;
23634;SDS011;11994;51.038;16.974;2023-07-28T10:03:49;1.70;;;0.80;;
23634;SDS011;11994;51.038;16.974;2023-07-28T10:06:15;1.70;;;1.00;;
23634;SDS011;11994;51.038;16.974;2023-07-28T10:08:42;0.80;;;0.60;;
23634;SDS011;11994;51.038;16.974;2023-07-28T10:11:10;2.80;;;0.80;;
23634;SDS011;11994;51.038;16.974;2023-07-28T10:13:43;2.00;;;0.80;;
23634;SDS011;11994;51.038;16.974;2023-07-28T10:16:12;2.70;;;0.70;;
23634;SDS011;11994;51.038;16.974;2023-07-28T10:18:40;1.60;;;0.70;;
23634;SDS011;11994;51.038;16.974;2023-07-28T10:21:08;3.30;;;0.80;;
23634;SDS011;11994;51.038;16.974;2023-07-28T10:23:38;3.10;;;0.80;;
23634;SDS011;11994;51.038;16.974;2023-07-28T10:26:04;1.70;;;0.70;;
23634;SDS011;11994;51.038;16.974;2023-07-28T10:28:40;2.80;;;0.80;;
23634;SDS011;11994;51.038;16.974;2023-07-28T10:31:09;3.60;;;1.00;;
23634;SDS011;11994;51.038;16.974;2023-07-28T10:33:39;5.10;;;0.70;;
23634;SDS011;11994;51.038;16.974;2023-07-28T10:38:41;2.20;;;0.90;;
23634;SDS011;11994;51.038;16.974;2023-07-28T10:41:17;1.60;;;0.80;;
23634;SDS011;11994;51.038;16.974;2023-07-28T10:53:55;3.80;;;0.80;;
23634;SDS011;11994;51.038;16.974;2023-07-28T10:56:22;2.20;;;0.90;;
23634;SDS011;11994;51.038;16.974;2023-07-28T10:59:01;2.90;;;0.90;;
23634;SDS011;11994;51.038;16.974;2023-07-28T11:04:08;1.70;;;0.80;;
23634;SDS011;11994;51.038;16.974;2023-07-28T11:06:36;4.00;;;0.80;;
23634;SDS011;11994;51.038;16.974;2023-07-28T11:09:05;3.20;;;0.80;;
23634;SDS011;11994;51.038;16.974;2023-07-28T11:11:31;2.50;;;0.80;;
23634;SDS011;11994;51.038;16.974;2023-07-28T11:13:57;1.50;;;0.90;;
23634;SDS011;11994;51.038;16.974;2023-07-28T11:16:23;3.30;;;0.90;;
23634;SDS011;11994;51.038;16.974;2023-07-28T11:18:49;2.40;;;0.90;;
23634;SDS011;11994;51.038;16.974;2023-07-28T11:21:17;3.70;;;1.10;;
23634;SDS011;11994;51.038;16.974;2023-07-28T11:23:45;2.90;;;1.00;;
23634;SDS011;11994;51.038;16.974;2023-07-28T11:26:11;2.70;;;0.80;;
23634;SDS011;11994;51.038;16.974;2023-07-28T11:28:37;5.40;;;0.90;;
23634;SDS011;11994;51.038;16.974;2023-07-28T11:31:03;4.10;;;0.80;;
23634;SDS011;11994;51.038;16.974;2023-07-28T11:33:29;2.10;;;0.90;;
23634;SDS011;11994;51.038;16.974;2023-07-28T11:35:54;5.30;;;1.20;;
23634;SDS011;11994;51.038;16.974;2023-07-28T11:38:20;1.60;;;0.90;;
23634;SDS011;11994;51.038;16.974;2023-07-28T11:40:45;3.90;;;1.10;;
23634;SDS011;11994;51.038;16.974;2023-07-28T11:43:11;2.00;;;1.00;;
23634;SDS011;11994;51.038;16.974;2023-07-28T11:45:37;4.10;;;1.00;;
23634;SDS011;11994;51.038;16.974;2023-07-28T11:48:06;3.10;;;1.00;;
23634;SDS011;11994;51.038;16.974;2023-07-28T11:50:39;3.10;;;1.00;;
23634;SDS011;11994;51.038;16.974;2023-07-28T11:53:05;5.10;;;1.10;;
23634;SDS011;11994;51.038;16.974;2023-07-28T11:55:33;3.30;;;1.40;;
23634;SDS011;11994;51.038;16.974;2023-07-28T11:57:59;2.10;;;1.10;;
23634;SDS011;11994;51.038;16.974;2023-07-28T12:00:33;1.20;;;0.80;;
23634;SDS011;11994;51.038;16.974;2023-07-28T12:03:07;2.30;;;0.70;;
23634;SDS011;11994;51.038;16.974;2023-07-28T12:05:40;2.40;;;0.80;;
23634;SDS011;11994;51.038;16.974;2023-07-28T12:08:35;2.00;;;0.70;;
23634;SDS011;11994;51.038;16.974;2023-07-28T12:11:02;2.70;;;0.90;;
23634;SDS011;11994;51.038;16.974;2023-07-28T12:13:27;1.20;;;0.80;;
23634;SDS011;11994;51.038;16.974;2023-07-28T12:15:53;6.00;;;0.90;;
23634;SDS011;11994;51.038;16.974;2023-07-28T12:18:19;3.00;;;0.70;;
23634;SDS011;11994;51.038;16.974;2023-07-28T12:20:46;1.00;;;0.60;;
23634;SDS011;11994;51.038;16.974;2023-07-28T12:23:16;3.30;;;0.80;;
23634;SDS011;11994;51.038;16.974;2023-07-28T12:25:43;3.20;;;0.90;;
23634;SDS011;11994;51.038;16.974;2023-07-28T12:28:09;1.70;;;0.60;;
23634;SDS011;11994;51.038;16.974;2023-07-28T12:30:36;1.40;;;0.70;;
23634;SDS011;11994;51.038;16.974;2023-07-28T12:33:02;4.80;;;0.60;;
23634;SDS011;11994;51.038;16.974;2023-07-28T12:35:29;2.40;;;0.60;;
23634;SDS011;11994;51.038;16.974;2023-07-28T12:38:03;1.10;;;0.60;;
23634;SDS011;11994;51.038;16.974;2023-07-28T12:40:31;2.10;;;0.80;;
23634;SDS011;11994;51.038;16.974;2023-07-28T12:42:57;2.50;;;0.70;;
23634;SDS011;11994;51.038;16.974;2023-07-28T12:45:23;2.10;;;0.70;;
23634;SDS011;11994;51.038;16.974;2023-07-28T12:47:51;4.30;;;0.50;;
23634;SDS011;11994;51.038;16.974;2023-07-28T12:50:22;3.80;;;0.90;;
23634;SDS011;11994;51.038;16.974;2023-07-28T12:52:49;3.30;;;0.70;;
23634;SDS011;11994;51.038;16.974;2023-07-28T12:55:15;1.80;;;0.50;;
23634;SDS011;11994;51.038;16.974;2023-07-28T12:57:41;1.50;;;0.60;;
23634;SDS011;11994;51.038;16.974;2023-07-28T13:00:07;1.20;;;0.60;;
23634;SDS011;11994;51.038;16.974;2023-07-28T13:02:40;1.20;;;0.70;;
23634;SDS011;11994;51.038;16.974;2023-07-28T13:05:08;1.70;;;0.60;;
23634;SDS011;11994;51.038;16.974;2023-07-28T13:07:35;3.80;;;0.60;;
23634;SDS011;11994;51.038;16.974;2023-07-28T13:10:01;3.80;;;0.60;;
23634;SDS011;11994;51.038;16.974;2023-07-28T13:12:28;2.70;;;0.40;;
23634;SDS011;11994;51.038;16.974;2023-07-28T13:14:53;5.80;;;0.40;;
23634;SDS011;11994;51.038;16.974;2023-07-28T13:17:19;1.70;;;0.50;;
23634;SDS011;11994;51.038;16.974;2023-07-28T13:19:44;1.40;;;0.40;;
23634;SDS011;11994;51.038;16.974;2023-07-28T13:22:10;2.00;;;0.60;;
23634;SDS011;11994;51.038;16.974;2023-07-28T13:24:35;3.60;;;0.60;;
23634;SDS011;11994;51.038;16.974;2023-07-28T13:27:01;2.40;;;0.50;;
23634;SDS011;11994;51.038;16.974;2023-07-28T13:29:26;2.30;;;0.50;;
23634;SDS011;11994;51.038;16.974;2023-07-28T13:31:56;2.20;;;0.50;;
23634;SDS011;11994;51.038;16.974;2023-07-28T13:34:23;0.90;;;0.50;;
23634;SDS011;11994;51.038;16.974;2023-07-28T13:36:49;1.80;;;0.40;;
23634;SDS011;11994;51.038;16.974;2023-07-28T13:39:14;1.70;;;0.50;;
23634;SDS011;11994;51.038;16.974;2023-07-28T13:41:40;1.90;;;0.50;;
23634;SDS011;11994;51.038;16.974;2023-07-28T13:44:05;1.00;;;0.40;;
23634;SDS011;11994;51.038;16.974;2023-07-28T13:46:30;1.10;;;0.50;;
23634;SDS011;11994;51.038;16.974;2023-07-28T13:48:56;1.20;;;0.50;;
23634;SDS011;11994;51.038;16.974;2023-07-28T13:51:21;2.40;;;0.40;;
23634;SDS011;11994;51.038;16.974;2023-07-28T13:53:47;1.50;;;0.40;;
23634;SDS011;11994;51.038;16.974;2023-07-28T13:56:12;1.30;;;0.50;;
23634;SDS011;11994;51.038;16.974;2023-07-28T13:58:38;0.70;;;0.50;;
23634;SDS011;11994;51.038;16.974;2023-07-28T14:01:03;5.20;;;0.50;;
23634;SDS011;11994;51.038;16.974;2023-07-28T14:03:29;3.20;;;0.50;;
23634;SDS011;11994;51.038;16.974;2023-07-28T14:05:54;2.80;;;0.60;;
23634;SDS011;11994;51.038;16.974;2023-07-28T14:08:19;3.50;;;0.30;;
23634;SDS011;11994;51.038;16.974;2023-07-28T14:10:45;4.20;;;0.50;;
23634;SDS011;11994;51.038;16.974;2023-07-28T14:13:11;1.40;;;0.40;;
23634;SDS011;11994;51.038;16.974;2023-07-28T14:15:37;1.20;;;0.40;;
23634;SDS011;11994;51.038;16.974;2023-07-28T14:18:03;2.90;;;0.40;;
23634;SDS011;11994;51.038;16.974;2023-07-28T14:20:28;1.20;;;0.40;;
23634;SDS011;11994;51.038;16.974;2023-07-28T14:22:54;4.20;;;0.70;;
23634;SDS011;11994;51.038;16.974;2023-07-28T14:25:20;1.50;;;0.30;;
23634;SDS011;11994;51.038;16.974;2023-07-28T14:27:45;3.10;;;0.50;;
23634;SDS011;11994;51.038;16.974;2023-07-28T14:30:11;1.50;;;0.40;;
23634;SDS011;11994;51.038;16.974;2023-07-28T14:32:36;3.90;;;0.50;;
23634;SDS011;11994;51.038;16.974;2023-07-28T14:35:01;3.40;;;0.50;;
23634;SDS011;11994;51.038;16.974;2023-07-28T14:37:27;2.10;;;0.40;;
23634;SDS011;11994;51.038;16.974;2023-07-28T14:39:52;2.10;;;0.50;;
23634;SDS011;11994;51.038;16.974;2023-07-28T14:42:18;0.80;;;0.40;;
23634;SDS011;11994;51.038;16.974;2023-07-28T14:44:43;0.70;;;0.40;;
23634;SDS011;11994;51.038;16.974;2023-07-28T14:47:09;1.00;;;0.50;;
23634;SDS011;11994;51.038;16.974;2023-07-28T14:49:34;1.50;;;0.40;;
23634;SDS011;11994;51.038;16.974;2023-07-28T14:52:00;2.20;;;0.50;;
23634;SDS011;11994;51.038;16.974;2023-07-28T14:54:25;2.90;;;0.50;;
23634;SDS011;11994;51.038;16.974;2023-07-28T14:56:50;1.60;;;0.40;;
23634;SDS011;11994;51.038;16.974;2023-07-28T14:59:16;1.90;;;0.60;;
23634;SDS011;11994;51.038;16.974;2023-07-28T15:01:43;3.50;;;0.40;;
23634;SDS011;11994;51.038;16.974;2023-07-28T15:04:08;4.30;;;0.50;;